sensor_id;sensor_type;location;lat;lon;timestamp;P1;durP1;ratioP1;P2;durP2;ratioP2
73168;SDS011;61379;59.732;30.468;2023-10-19T00:01:47;8.68;;;7.88;;
73168;SDS011;61379;59.732;30.468;2023-10-19T00:04:14;7.70;;;7.10;;
73168;SDS011;61379;59.732;30.468;2023-10-19T00:06:40;7.63;;;6.95;;
73168;SDS011;61379;59.732;30.468;2023-10-19T00:09:06;7.90;;;7.22;;
73168;SDS011;61379;59.732;30.468;2023-10-19T00:14:07;9.07;;;8.27;;
73168;SDS011;61379;59.732;30.468;2023-10-19T00:16:41;10.25;;;7.45;;
73168;SDS011;61379;59.732;30.468;2023-10-19T00:19:10;9.40;;;7.80;;
73168;SDS011;61379;59.732;30.468;2023-10-19T00:21:36;8.02;;;7.22;;
73168;SDS011;61379;59.732;30.468;2023-10-19T00:24:16;8.30;;;7.47;;
73168;SDS011;61379;59.732;30.468;2023-10-19T00:26:43;7.93;;;7.28;;
73168;SDS011;61379;59.732;30.468;2023-10-19T00:29:10;9.10;;;8.27;;
73168;SDS011;61379;59.732;30.468;2023-10-19T00:31:55;8.45;;;7.68;;
73168;SDS011;61379;59.732;30.468;2023-10-19T00:34:21;7.15;;;6.45;;
73168;SDS011;61379;59.732;30.468;2023-10-19T00:36:48;8.57;;;7.70;;
73168;SDS011;61379;59.732;30.468;2023-10-19T00:39:16;8.55;;;7.53;;
73168;SDS011;61379;59.732;30.468;2023-10-19T00:41:47;8.38;;;7.50;;
73168;SDS011;61379;59.732;30.468;2023-10-19T00:44:16;8.07;;;7.32;;
73168;SDS011;61379;59.732;30.468;2023-10-19T00:46:48;8.50;;;7.70;;
73168;SDS011;61379;59.732;30.468;2023-10-19T00:49:20;7.55;;;6.88;;
73168;SDS011;61379;59.732;30.468;2023-10-19T00:51:51;11.60;;;7.80;;
73168;SDS011;61379;59.732;30.468;2023-10-19T00:54:27;10.25;;;7.95;;
73168;SDS011;61379;59.732;30.468;2023-10-19T00:56:58;8.45;;;7.60;;
73168;SDS011;61379;59.732;30.468;2023-10-19T00:59:31;9.15;;;8.25;;
73168;SDS011;61379;59.732;30.468;2023-10-19T01:02:01;8.13;;;7.32;;
73168;SDS011;61379;59.732;30.468;2023-10-19T01:04:42;9.82;;;7.30;;
73168;SDS011;61379;59.732;30.468;2023-10-19T01:07:10;8.25;;;7.45;;
73168;SDS011;61379;59.732;30.468;2023-10-19T01:09:41;9.27;;;7.60;;
73168;SDS011;61379;59.732;30.468;2023-10-19T01:12:09;9.05;;;6.97;;
73168;SDS011;61379;59.732;30.468;2023-10-19T01:15:08;9.38;;;6.88;;
73168;SDS011;61379;59.732;30.468;2023-10-19T01:17:38;10.82;;;7.45;;
73168;SDS011;61379;59.732;30.468;2023-10-19T01:20:06;8.63;;;7.38;;
73168;SDS011;61379;59.732;30.468;2023-10-19T01:22:46;10.15;;;7.35;;
73168;SDS011;61379;59.732;30.468;2023-10-19T01:25:14;8.85;;;7.00;;
73168;SDS011;61379;59.732;30.468;2023-10-19T01:27:46;10.50;;;7.15;;
73168;SDS011;61379;59.732;30.468;2023-10-19T01:30:12;7.75;;;6.90;;
73168;SDS011;61379;59.732;30.468;2023-10-19T01:32:42;11.88;;;7.15;;
73168;SDS011;61379;59.732;30.468;2023-10-19T01:35:09;9.35;;;7.22;;
73168;SDS011;61379;59.732;30.468;2023-10-19T01:37:36;8.10;;;7.07;;
73168;SDS011;61379;59.732;30.468;2023-10-19T01:40:05;8.88;;;7.80;;
73168;SDS011;61379;59.732;30.468;2023-10-19T01:42:32;9.65;;;7.57;;
73168;SDS011;61379;59.732;30.468;2023-10-19T01:44:58;8.60;;;7.57;;
73168;SDS011;61379;59.732;30.468;2023-10-19T01:47:25;9.90;;;8.02;;
73168;SDS011;61379;59.732;30.468;2023-10-19T01:49:50;8.32;;;6.90;;
73168;SDS011;61379;59.732;30.468;2023-10-19T01:52:18;8.55;;;7.25;;
73168;SDS011;61379;59.732;30.468;2023-10-19T01:54:44;8.82;;;7.60;;
73168;SDS011;61379;59.732;30.468;2023-10-19T01:57:12;8.95;;;7.20;;
73168;SDS011;61379;59.732;30.468;2023-10-19T01:59:40;8.80;;;6.78;;
73168;SDS011;61379;59.732;30.468;2023-10-19T02:02:09;9.20;;;7.07;;
73168;SDS011;61379;59.732;30.468;2023-10-19T02:04:37;8.55;;;6.90;;
73168;SDS011;61379;59.732;30.468;2023-10-19T02:07:07;10.75;;;8.02;;
73168;SDS011;61379;59.732;30.468;2023-10-19T02:09:37;9.55;;;7.28;;
73168;SDS011;61379;59.732;30.468;2023-10-19T02:12:04;8.70;;;7.45;;
73168;SDS011;61379;59.732;30.468;2023-10-19T02:14:35;8.50;;;7.57;;
73168;SDS011;61379;59.732;30.468;2023-10-19T02:17:05;10.10;;;8.52;;
73168;SDS011;61379;59.732;30.468;2023-10-19T02:19:31;8.45;;;7.65;;
73168;SDS011;61379;59.732;30.468;2023-10-19T02:22:04;9.10;;;7.70;;
73168;SDS011;61379;59.732;30.468;2023-10-19T02:24:33;10.25;;;8.13;;
73168;SDS011;61379;59.732;30.468;2023-10-19T02:27:01;8.30;;;6.82;;
73168;SDS011;61379;59.732;30.468;2023-10-19T02:29:26;9.13;;;7.25;;
73168;SDS011;61379;59.732;30.468;2023-10-19T02:31:55;7.90;;;7.10;;
73168;SDS011;61379;59.732;30.468;2023-10-19T02:34:22;9.18;;;7.28;;
73168;SDS011;61379;59.732;30.468;2023-10-19T02:36:49;8.02;;;7.32;;
73168;SDS011;61379;59.732;30.468;2023-10-19T02:39:16;8.45;;;7.63;;
73168;SDS011;61379;59.732;30.468;2023-10-19T02:41:44;12.93;;;8.00;;
73168;SDS011;61379;59.732;30.468;2023-10-19T02:44:10;9.25;;;7.22;;
73168;SDS011;61379;59.732;30.468;2023-10-19T02:46:46;8.00;;;7.20;;
73168;SDS011;61379;59.732;30.468;2023-10-19T02:49:14;8.43;;;6.82;;
73168;SDS011;61379;59.732;30.468;2023-10-19T02:51:44;8.65;;;6.88;;
73168;SDS011;61379;59.732;30.468;2023-10-19T02:54:10;7.57;;;6.63;;
73168;SDS011;61379;59.732;30.468;2023-10-19T02:56:45;7.93;;;7.07;;
73168;SDS011;61379;59.732;30.468;2023-10-19T02:59:14;8.68;;;7.20;;
73168;SDS011;61379;59.732;30.468;2023-10-19T03:01:41;8.02;;;7.20;;
73168;SDS011;61379;59.732;30.468;2023-10-19T03:04:09;8.68;;;7.78;;
73168;SDS011;61379;59.732;30.468;2023-10-19T03:06:39;7.90;;;7.18;;
73168;SDS011;61379;59.732;30.468;2023-10-19T03:09:06;10.50;;;8.00;;
73168;SDS011;61379;59.732;30.468;2023-10-19T03:11:39;8.30;;;7.15;;
73168;SDS011;61379;59.732;30.468;2023-10-19T03:14:06;11.50;;;8.35;;
73168;SDS011;61379;59.732;30.468;2023-10-19T03:16:33;9.30;;;8.32;;
73168;SDS011;61379;59.732;30.468;2023-10-19T03:19:00;10.07;;;9.18;;
73168;SDS011;61379;59.732;30.468;2023-10-19T03:21:27;9.82;;;8.85;;
73168;SDS011;61379;59.732;30.468;2023-10-19T03:23:54;11.57;;;9.93;;
73168;SDS011;61379;59.732;30.468;2023-10-19T03:26:22;10.60;;;9.45;;
73168;SDS011;61379;59.732;30.468;2023-10-19T03:28:49;11.98;;;10.65;;
73168;SDS011;61379;59.732;30.468;2023-10-19T03:31:20;11.95;;;10.50;;
73168;SDS011;61379;59.732;30.468;2023-10-19T03:33:48;11.40;;;10.23;;
73168;SDS011;61379;59.732;30.468;2023-10-19T03:36:15;16.80;;;11.60;;
73168;SDS011;61379;59.732;30.468;2023-10-19T03:38:42;16.88;;;12.10;;
73168;SDS011;61379;59.732;30.468;2023-10-19T03:41:11;14.05;;;10.90;;
73168;SDS011;61379;59.732;30.468;2023-10-19T03:43:39;16.98;;;12.48;;
73168;SDS011;61379;59.732;30.468;2023-10-19T03:46:06;11.70;;;10.38;;
73168;SDS011;61379;59.732;30.468;2023-10-19T03:48:48;9.75;;;8.60;;
73168;SDS011;61379;59.732;30.468;2023-10-19T03:51:16;13.13;;;9.95;;
73168;SDS011;61379;59.732;30.468;2023-10-19T03:53:43;9.82;;;8.38;;
73168;SDS011;61379;59.732;30.468;2023-10-19T03:56:15;10.35;;;9.35;;
73168;SDS011;61379;59.732;30.468;2023-10-19T03:58:43;9.50;;;8.05;;
73168;SDS011;61379;59.732;30.468;2023-10-19T04:01:12;9.88;;;8.88;;
73168;SDS011;61379;59.732;30.468;2023-10-19T04:03:42;9.50;;;8.32;;
73168;SDS011;61379;59.732;30.468;2023-10-19T04:06:08;8.50;;;7.65;;
73168;SDS011;61379;59.732;30.468;2023-10-19T04:08:39;11.52;;;9.73;;
73168;SDS011;61379;59.732;30.468;2023-10-19T04:11:06;10.18;;;8.60;;
73168;SDS011;61379;59.732;30.468;2023-10-19T04:13:38;10.70;;;9.52;;
73168;SDS011;61379;59.732;30.468;2023-10-19T04:16:05;10.02;;;9.02;;
73168;SDS011;61379;59.732;30.468;2023-10-19T04:18:34;10.85;;;9.75;;
73168;SDS011;61379;59.732;30.468;2023-10-19T04:21:05;9.85;;;8.80;;
73168;SDS011;61379;59.732;30.468;2023-10-19T04:23:32;10.25;;;9.20;;
73168;SDS011;61379;59.732;30.468;2023-10-19T04:26:01;10.85;;;9.25;;
73168;SDS011;61379;59.732;30.468;2023-10-19T04:28:36;10.15;;;9.13;;
73168;SDS011;61379;59.732;30.468;2023-10-19T04:31:11;10.70;;;8.75;;
73168;SDS011;61379;59.732;30.468;2023-10-19T04:33:41;10.27;;;8.70;;
73168;SDS011;61379;59.732;30.468;2023-10-19T04:36:15;8.68;;;7.88;;
73168;SDS011;61379;59.732;30.468;2023-10-19T04:38:46;10.50;;;8.30;;
73168;SDS011;61379;59.732;30.468;2023-10-19T04:41:13;9.02;;;8.23;;
73168;SDS011;61379;59.732;30.468;2023-10-19T04:43:40;9.52;;;8.30;;
73168;SDS011;61379;59.732;30.468;2023-10-19T04:46:14;8.77;;;7.90;;
73168;SDS011;61379;59.732;30.468;2023-10-19T04:48:44;9.30;;;8.20;;
73168;SDS011;61379;59.732;30.468;2023-10-19T04:51:11;8.07;;;7.40;;
73168;SDS011;61379;59.732;30.468;2023-10-19T04:53:38;8.60;;;7.90;;
73168;SDS011;61379;59.732;30.468;2023-10-19T04:56:05;13.48;;;7.57;;
73168;SDS011;61379;59.732;30.468;2023-10-19T04:58:32;8.80;;;7.47;;
73168;SDS011;61379;59.732;30.468;2023-10-19T05:00:58;9.13;;;8.23;;
73168;SDS011;61379;59.732;30.468;2023-10-19T05:03:27;8.48;;;7.68;;
73168;SDS011;61379;59.732;30.468;2023-10-19T05:05:54;8.93;;;8.10;;
73168;SDS011;61379;59.732;30.468;2023-10-19T05:08:22;9.48;;;8.57;;
73168;SDS011;61379;59.732;30.468;2023-10-19T05:10:51;9.90;;;8.48;;
73168;SDS011;61379;59.732;30.468;2023-10-19T05:13:18;8.40;;;7.50;;
73168;SDS011;61379;59.732;30.468;2023-10-19T05:15:45;8.70;;;7.40;;
73168;SDS011;61379;59.732;30.468;2023-10-19T05:18:12;9.98;;;7.28;;
73168;SDS011;61379;59.732;30.468;2023-10-19T05:20:40;14.98;;;10.95;;
73168;SDS011;61379;59.732;30.468;2023-10-19T05:23:07;8.82;;;7.75;;
73168;SDS011;61379;59.732;30.468;2023-10-19T05:25:34;8.57;;;7.68;;
73168;SDS011;61379;59.732;30.468;2023-10-19T05:28:01;10.10;;;8.70;;
73168;SDS011;61379;59.732;30.468;2023-10-19T05:30:28;10.02;;;8.43;;
73168;SDS011;61379;59.732;30.468;2023-10-19T05:32:55;10.32;;;7.85;;
73168;SDS011;61379;59.732;30.468;2023-10-19T05:35:22;9.07;;;8.15;;
73168;SDS011;61379;59.732;30.468;2023-10-19T05:37:53;10.77;;;8.88;;
73168;SDS011;61379;59.732;30.468;2023-10-19T05:40:20;9.52;;;8.73;;
73168;SDS011;61379;59.732;30.468;2023-10-19T05:42:48;10.05;;;9.05;;
73168;SDS011;61379;59.732;30.468;2023-10-19T05:45:15;15.77;;;9.25;;
73168;SDS011;61379;59.732;30.468;2023-10-19T05:47:42;10.57;;;9.38;;
73168;SDS011;61379;59.732;30.468;2023-10-19T05:50:10;8.93;;;8.02;;
73168;SDS011;61379;59.732;30.468;2023-10-19T05:52:40;10.02;;;9.02;;
73168;SDS011;61379;59.732;30.468;2023-10-19T05:55:09;9.35;;;8.27;;
73168;SDS011;61379;59.732;30.468;2023-10-19T05:57:37;10.35;;;8.23;;
73168;SDS011;61379;59.732;30.468;2023-10-19T06:00:06;9.73;;;8.73;;
73168;SDS011;61379;59.732;30.468;2023-10-19T06:02:37;9.98;;;7.60;;
73168;SDS011;61379;59.732;30.468;2023-10-19T06:05:04;9.73;;;7.65;;
73168;SDS011;61379;59.732;30.468;2023-10-19T06:07:32;8.50;;;7.20;;
73168;SDS011;61379;59.732;30.468;2023-10-19T06:09:59;9.63;;;7.68;;
73168;SDS011;61379;59.732;30.468;2023-10-19T06:12:32;10.43;;;8.20;;
73168;SDS011;61379;59.732;30.468;2023-10-19T06:14:59;11.35;;;7.82;;
73168;SDS011;61379;59.732;30.468;2023-10-19T06:17:26;10.48;;;7.45;;
73168;SDS011;61379;59.732;30.468;2023-10-19T06:19:53;12.70;;;7.55;;
73168;SDS011;61379;59.732;30.468;2023-10-19T06:22:20;8.88;;;7.35;;
73168;SDS011;61379;59.732;30.468;2023-10-19T06:24:47;11.20;;;7.88;;
73168;SDS011;61379;59.732;30.468;2023-10-19T06:27:14;11.52;;;8.43;;
73168;SDS011;61379;59.732;30.468;2023-10-19T06:29:42;12.32;;;7.65;;
73168;SDS011;61379;59.732;30.468;2023-10-19T06:32:09;11.00;;;7.78;;
73168;SDS011;61379;59.732;30.468;2023-10-19T06:34:38;11.50;;;8.27;;
73168;SDS011;61379;59.732;30.468;2023-10-19T06:37:05;9.20;;;7.95;;
73168;SDS011;61379;59.732;30.468;2023-10-19T06:39:34;15.13;;;9.20;;
73168;SDS011;61379;59.732;30.468;2023-10-19T06:42:06;15.27;;;8.52;;
73168;SDS011;61379;59.732;30.468;2023-10-19T06:44:35;14.07;;;8.60;;
73168;SDS011;61379;59.732;30.468;2023-10-19T06:47:03;12.05;;;7.50;;
73168;SDS011;61379;59.732;30.468;2023-10-19T06:49:30;16.05;;;9.70;;
73168;SDS011;61379;59.732;30.468;2023-10-19T06:51:57;12.80;;;8.73;;
73168;SDS011;61379;59.732;30.468;2023-10-19T06:54:24;12.48;;;8.02;;
73168;SDS011;61379;59.732;30.468;2023-10-19T06:56:53;11.45;;;8.20;;
73168;SDS011;61379;59.732;30.468;2023-10-19T06:59:19;14.57;;;8.57;;
73168;SDS011;61379;59.732;30.468;2023-10-19T07:01:46;11.02;;;9.15;;
73168;SDS011;61379;59.732;30.468;2023-10-19T07:04:14;16.50;;;9.35;;
73168;SDS011;61379;59.732;30.468;2023-10-19T07:06:41;15.45;;;10.25;;
73168;SDS011;61379;59.732;30.468;2023-10-19T07:09:07;10.90;;;9.68;;
73168;SDS011;61379;59.732;30.468;2023-10-19T07:11:36;13.45;;;9.38;;
73168;SDS011;61379;59.732;30.468;2023-10-19T07:14:03;12.70;;;8.73;;
73168;SDS011;61379;59.732;30.468;2023-10-19T07:16:32;14.05;;;9.15;;
73168;SDS011;61379;59.732;30.468;2023-10-19T07:18:59;16.75;;;10.25;;
73168;SDS011;61379;59.732;30.468;2023-10-19T07:21:27;14.05;;;9.50;;
73168;SDS011;61379;59.732;30.468;2023-10-19T07:23:57;12.40;;;10.05;;
73168;SDS011;61379;59.732;30.468;2023-10-19T07:26:26;15.98;;;10.20;;
73168;SDS011;61379;59.732;30.468;2023-10-19T07:28:56;12.80;;;9.10;;
73168;SDS011;61379;59.732;30.468;2023-10-19T07:31:23;16.05;;;8.85;;
73168;SDS011;61379;59.732;30.468;2023-10-19T07:33:51;14.13;;;9.98;;
73168;SDS011;61379;59.732;30.468;2023-10-19T07:36:17;12.02;;;9.52;;
73168;SDS011;61379;59.732;30.468;2023-10-19T07:38:46;12.38;;;9.77;;
73168;SDS011;61379;59.732;30.468;2023-10-19T07:41:13;12.52;;;9.50;;
73168;SDS011;61379;59.732;30.468;2023-10-19T07:43:40;10.02;;;8.77;;
73168;SDS011;61379;59.732;30.468;2023-10-19T07:46:06;16.52;;;10.63;;
73168;SDS011;61379;59.732;30.468;2023-10-19T07:48:34;13.98;;;9.10;;
73168;SDS011;61379;59.732;30.468;2023-10-19T07:51:01;17.02;;;10.00;;
73168;SDS011;61379;59.732;30.468;2023-10-19T07:53:27;19.45;;;9.70;;
73168;SDS011;61379;59.732;30.468;2023-10-19T07:55:56;14.27;;;8.50;;
73168;SDS011;61379;59.732;30.468;2023-10-19T07:58:23;13.18;;;8.93;;
73168;SDS011;61379;59.732;30.468;2023-10-19T08:00:51;11.57;;;8.80;;
73168;SDS011;61379;59.732;30.468;2023-10-19T08:03:18;11.57;;;9.25;;
73168;SDS011;61379;59.732;30.468;2023-10-19T08:05:45;13.65;;;9.70;;
73168;SDS011;61379;59.732;30.468;2023-10-19T08:08:12;17.70;;;12.25;;
73168;SDS011;61379;59.732;30.468;2023-10-19T08:10:39;16.75;;;11.20;;
73168;SDS011;61379;59.732;30.468;2023-10-19T08:13:07;18.38;;;11.50;;
73168;SDS011;61379;59.732;30.468;2023-10-19T08:15:34;16.05;;;12.43;;
73168;SDS011;61379;59.732;30.468;2023-10-19T08:18:01;22.02;;;11.43;;
73168;SDS011;61379;59.732;30.468;2023-10-19T08:20:31;18.83;;;10.00;;
73168;SDS011;61379;59.732;30.468;2023-10-19T08:22:58;19.70;;;11.10;;
73168;SDS011;61379;59.732;30.468;2023-10-19T08:25:26;18.20;;;10.45;;
73168;SDS011;61379;59.732;30.468;2023-10-19T08:27:54;16.70;;;10.50;;
73168;SDS011;61379;59.732;30.468;2023-10-19T08:30:24;12.32;;;8.23;;
73168;SDS011;61379;59.732;30.468;2023-10-19T08:32:51;13.98;;;9.85;;
73168;SDS011;61379;59.732;30.468;2023-10-19T08:35:19;12.57;;;8.65;;
73168;SDS011;61379;59.732;30.468;2023-10-19T08:37:50;12.18;;;9.55;;
73168;SDS011;61379;59.732;30.468;2023-10-19T08:40:18;12.68;;;9.80;;
73168;SDS011;61379;59.732;30.468;2023-10-19T08:42:47;11.05;;;9.27;;
73168;SDS011;61379;59.732;30.468;2023-10-19T08:45:14;10.68;;;9.25;;
73168;SDS011;61379;59.732;30.468;2023-10-19T08:47:47;10.88;;;7.90;;
73168;SDS011;61379;59.732;30.468;2023-10-19T08:50:16;9.20;;;8.30;;
73168;SDS011;61379;59.732;30.468;2023-10-19T08:52:46;9.40;;;7.60;;
73168;SDS011;61379;59.732;30.468;2023-10-19T08:55:13;14.63;;;8.70;;
73168;SDS011;61379;59.732;30.468;2023-10-19T08:57:40;12.13;;;9.95;;
73168;SDS011;61379;59.732;30.468;2023-10-19T09:00:07;10.02;;;8.38;;
73168;SDS011;61379;59.732;30.468;2023-10-19T09:02:35;9.63;;;8.63;;
73168;SDS011;61379;59.732;30.468;2023-10-19T09:05:06;10.63;;;9.02;;
73168;SDS011;61379;59.732;30.468;2023-10-19T09:07:34;12.48;;;9.10;;
73168;SDS011;61379;59.732;30.468;2023-10-19T09:10:01;11.95;;;9.40;;
73168;SDS011;61379;59.732;30.468;2023-10-19T09:12:31;13.70;;;9.68;;
73168;SDS011;61379;59.732;30.468;2023-10-19T09:14:57;12.07;;;9.68;;
73168;SDS011;61379;59.732;30.468;2023-10-19T09:17:27;12.25;;;9.80;;
73168;SDS011;61379;59.732;30.468;2023-10-19T09:22:23;12.50;;;9.30;;
73168;SDS011;61379;59.732;30.468;2023-10-19T09:24:49;9.30;;;8.20;;
73168;SDS011;61379;59.732;30.468;2023-10-19T09:27:18;9.70;;;8.23;;
73168;SDS011;61379;59.732;30.468;2023-10-19T09:29:46;15.18;;;9.45;;
73168;SDS011;61379;59.732;30.468;2023-10-19T09:32:13;12.77;;;8.60;;
73168;SDS011;61379;59.732;30.468;2023-10-19T09:34:40;10.05;;;9.02;;
73168;SDS011;61379;59.732;30.468;2023-10-19T09:37:09;10.65;;;8.40;;
73168;SDS011;61379;59.732;30.468;2023-10-19T09:39:37;10.38;;;8.70;;
73168;SDS011;61379;59.732;30.468;2023-10-19T09:42:05;11.25;;;8.95;;
73168;SDS011;61379;59.732;30.468;2023-10-19T09:44:39;9.77;;;8.90;;
73168;SDS011;61379;59.732;30.468;2023-10-19T09:47:08;10.30;;;9.50;;
73168;SDS011;61379;59.732;30.468;2023-10-19T09:49:37;9.57;;;8.63;;
73168;SDS011;61379;59.732;30.468;2023-10-19T09:52:04;9.77;;;8.77;;
73168;SDS011;61379;59.732;30.468;2023-10-19T09:54:32;11.63;;;8.90;;
73168;SDS011;61379;59.732;30.468;2023-10-19T09:57:03;11.52;;;9.20;;
73168;SDS011;61379;59.732;30.468;2023-10-19T09:59:37;9.65;;;8.23;;
73168;SDS011;61379;59.732;30.468;2023-10-19T10:02:06;8.55;;;7.72;;
73168;SDS011;61379;59.732;30.468;2023-10-19T10:04:34;13.07;;;7.78;;
73168;SDS011;61379;59.732;30.468;2023-10-19T10:07:01;9.68;;;7.82;;
73168;SDS011;61379;59.732;30.468;2023-10-19T10:09:31;8.48;;;7.68;;
73168;SDS011;61379;59.732;30.468;2023-10-19T10:14:44;9.30;;;7.07;;
73168;SDS011;61379;59.732;30.468;2023-10-19T10:17:18;8.45;;;7.22;;
73168;SDS011;61379;59.732;30.468;2023-10-19T10:19:45;6.75;;;6.07;;
73168;SDS011;61379;59.732;30.468;2023-10-19T10:22:13;6.80;;;5.82;;
73168;SDS011;61379;59.732;30.468;2023-10-19T10:24:41;7.38;;;6.43;;
73168;SDS011;61379;59.732;30.468;2023-10-19T10:27:08;6.90;;;6.25;;
73168;SDS011;61379;59.732;30.468;2023-10-19T10:29:36;7.95;;;7.30;;
73168;SDS011;61379;59.732;30.468;2023-10-19T10:32:04;8.00;;;7.25;;
73168;SDS011;61379;59.732;30.468;2023-10-19T10:34:44;6.80;;;6.20;;
73168;SDS011;61379;59.732;30.468;2023-10-19T10:42:06;6.32;;;5.82;;
73168;SDS011;61379;59.732;30.468;2023-10-19T10:44:36;5.78;;;5.25;;
73168;SDS011;61379;59.732;30.468;2023-10-19T10:47:06;6.95;;;6.13;;
73168;SDS011;61379;59.732;30.468;2023-10-19T10:52:00;7.28;;;6.57;;
73168;SDS011;61379;59.732;30.468;2023-10-19T10:54:27;7.18;;;6.45;;
73168;SDS011;61379;59.732;30.468;2023-10-19T10:56:54;6.70;;;6.20;;
73168;SDS011;61379;59.732;30.468;2023-10-19T10:59:20;8.05;;;7.25;;
73168;SDS011;61379;59.732;30.468;2023-10-19T11:01:47;8.07;;;7.25;;
73168;SDS011;61379;59.732;30.468;2023-10-19T11:04:15;7.55;;;6.72;;
73168;SDS011;61379;59.732;30.468;2023-10-19T11:06:47;7.97;;;7.28;;
73168;SDS011;61379;59.732;30.468;2023-10-19T11:09:14;7.63;;;6.57;;
73168;SDS011;61379;59.732;30.468;2023-10-19T11:11:43;7.55;;;6.72;;
73168;SDS011;61379;59.732;30.468;2023-10-19T11:14:10;7.88;;;7.25;;
73168;SDS011;61379;59.732;30.468;2023-10-19T11:16:37;7.47;;;6.47;;
73168;SDS011;61379;59.732;30.468;2023-10-19T11:19:05;6.47;;;5.97;;
73168;SDS011;61379;59.732;30.468;2023-10-19T11:21:33;7.13;;;6.65;;
73168;SDS011;61379;59.732;30.468;2023-10-19T11:24:00;7.15;;;6.47;;
73168;SDS011;61379;59.732;30.468;2023-10-19T11:26:27;6.95;;;6.40;;
73168;SDS011;61379;59.732;30.468;2023-10-19T11:28:57;6.97;;;6.38;;
73168;SDS011;61379;59.732;30.468;2023-10-19T11:31:26;7.78;;;7.13;;
73168;SDS011;61379;59.732;30.468;2023-10-19T11:33:53;7.65;;;7.05;;
73168;SDS011;61379;59.732;30.468;2023-10-19T11:36:20;11.32;;;7.28;;
73168;SDS011;61379;59.732;30.468;2023-10-19T11:38:49;7.15;;;6.55;;
73168;SDS011;61379;59.732;30.468;2023-10-19T11:41:16;8.00;;;7.28;;
73168;SDS011;61379;59.732;30.468;2023-10-19T11:43:44;6.70;;;6.07;;
73168;SDS011;61379;59.732;30.468;2023-10-19T11:46:11;7.43;;;6.65;;
73168;SDS011;61379;59.732;30.468;2023-10-19T11:48:40;8.55;;;7.18;;
73168;SDS011;61379;59.732;30.468;2023-10-19T11:51:08;9.30;;;6.70;;
73168;SDS011;61379;59.732;30.468;2023-10-19T11:53:37;9.98;;;6.32;;
73168;SDS011;61379;59.732;30.468;2023-10-19T11:56:06;8.48;;;7.35;;
73168;SDS011;61379;59.732;30.468;2023-10-19T11:58:33;7.00;;;6.40;;
73168;SDS011;61379;59.732;30.468;2023-10-19T12:01:00;8.30;;;7.60;;
73168;SDS011;61379;59.732;30.468;2023-10-19T12:03:28;9.60;;;7.85;;
73168;SDS011;61379;59.732;30.468;2023-10-19T12:05:55;6.82;;;6.32;;
73168;SDS011;61379;59.732;30.468;2023-10-19T12:08:22;8.10;;;7.40;;
73168;SDS011;61379;59.732;30.468;2023-10-19T12:10:49;8.40;;;7.70;;
73168;SDS011;61379;59.732;30.468;2023-10-19T12:13:17;8.88;;;7.97;;
73168;SDS011;61379;59.732;30.468;2023-10-19T12:15:44;9.95;;;9.00;;
73168;SDS011;61379;59.732;30.468;2023-10-19T12:18:17;10.77;;;9.00;;
73168;SDS011;61379;59.732;30.468;2023-10-19T12:20:44;8.55;;;7.57;;
73168;SDS011;61379;59.732;30.468;2023-10-19T12:23:11;11.05;;;8.32;;
73168;SDS011;61379;59.732;30.468;2023-10-19T12:25:38;8.95;;;8.18;;
73168;SDS011;61379;59.732;30.468;2023-10-19T12:28:05;8.15;;;6.70;;
73168;SDS011;61379;59.732;30.468;2023-10-19T12:30:34;8.15;;;7.43;;
73168;SDS011;61379;59.732;30.468;2023-10-19T12:33:02;7.45;;;6.78;;
73168;SDS011;61379;59.732;30.468;2023-10-19T12:35:33;8.48;;;7.88;;
73168;SDS011;61379;59.732;30.468;2023-10-19T12:38:10;8.20;;;7.60;;
73168;SDS011;61379;59.732;30.468;2023-10-19T12:40:41;9.23;;;8.52;;
73168;SDS011;61379;59.732;30.468;2023-10-19T12:43:09;8.70;;;7.88;;
73168;SDS011;61379;59.732;30.468;2023-10-19T12:45:39;7.53;;;6.93;;
73168;SDS011;61379;59.732;30.468;2023-10-19T12:48:06;7.70;;;7.20;;
73168;SDS011;61379;59.732;30.468;2023-10-19T12:50:34;7.28;;;5.95;;
73168;SDS011;61379;59.732;30.468;2023-10-19T12:53:01;6.70;;;6.20;;
73168;SDS011;61379;59.732;30.468;2023-10-19T12:55:28;6.63;;;6.07;;
73168;SDS011;61379;59.732;30.468;2023-10-19T12:57:56;8.85;;;6.85;;
73168;SDS011;61379;59.732;30.468;2023-10-19T13:00:25;6.95;;;5.80;;
73168;SDS011;61379;59.732;30.468;2023-10-19T13:05:27;6.38;;;5.97;;
73168;SDS011;61379;59.732;30.468;2023-10-19T13:07:53;6.68;;;6.15;;
73168;SDS011;61379;59.732;30.468;2023-10-19T13:12:49;7.35;;;6.85;;
73168;SDS011;61379;59.732;30.468;2023-10-19T13:15:17;7.22;;;6.47;;
73168;SDS011;61379;59.732;30.468;2023-10-19T13:17:43;12.10;;;6.95;;
73168;SDS011;61379;59.732;30.468;2023-10-19T13:20:10;9.10;;;6.63;;
73168;SDS011;61379;59.732;30.468;2023-10-19T13:22:45;7.05;;;6.55;;
73168;SDS011;61379;59.732;30.468;2023-10-19T13:25:12;7.93;;;6.53;;
73168;SDS011;61379;59.732;30.468;2023-10-19T13:27:42;6.90;;;6.18;;
73168;SDS011;61379;59.732;30.468;2023-10-19T13:30:10;10.52;;;6.35;;
73168;SDS011;61379;59.732;30.468;2023-10-19T13:32:39;6.88;;;6.28;;
73168;SDS011;61379;59.732;30.468;2023-10-19T13:35:06;6.18;;;5.57;;
73168;SDS011;61379;59.732;30.468;2023-10-19T13:37:34;6.93;;;6.25;;
73168;SDS011;61379;59.732;30.468;2023-10-19T13:40:03;8.02;;;6.30;;
73168;SDS011;61379;59.732;30.468;2023-10-19T13:42:32;7.10;;;6.38;;
73168;SDS011;61379;59.732;30.468;2023-10-19T13:45:18;7.15;;;6.45;;
73168;SDS011;61379;59.732;30.468;2023-10-19T13:47:45;6.93;;;6.32;;
73168;SDS011;61379;59.732;30.468;2023-10-19T13:50:12;6.85;;;6.10;;
73168;SDS011;61379;59.732;30.468;2023-10-19T13:52:38;7.32;;;6.07;;
73168;SDS011;61379;59.732;30.468;2023-10-19T13:55:11;9.60;;;6.50;;
73168;SDS011;61379;59.732;30.468;2023-10-19T13:57:42;8.43;;;7.55;;
73168;SDS011;61379;59.732;30.468;2023-10-19T14:00:09;8.45;;;7.78;;
73168;SDS011;61379;59.732;30.468;2023-10-19T14:02:36;7.07;;;6.50;;
73168;SDS011;61379;59.732;30.468;2023-10-19T14:05:04;7.22;;;6.70;;
73168;SDS011;61379;59.732;30.468;2023-10-19T14:07:32;6.72;;;6.13;;
73168;SDS011;61379;59.732;30.468;2023-10-19T14:09:59;7.10;;;6.57;;
73168;SDS011;61379;59.732;30.468;2023-10-19T14:14:56;6.47;;;5.97;;
73168;SDS011;61379;59.732;30.468;2023-10-19T14:17:23;6.43;;;5.95;;
73168;SDS011;61379;59.732;30.468;2023-10-19T14:19:50;6.55;;;6.05;;
73168;SDS011;61379;59.732;30.468;2023-10-19T14:22:17;7.88;;;7.30;;
73168;SDS011;61379;59.732;30.468;2023-10-19T14:24:44;7.28;;;6.68;;
73168;SDS011;61379;59.732;30.468;2023-10-19T14:27:11;6.63;;;6.13;;
73168;SDS011;61379;59.732;30.468;2023-10-19T14:29:39;8.98;;;6.40;;
73168;SDS011;61379;59.732;30.468;2023-10-19T14:32:07;7.13;;;6.47;;
73168;SDS011;61379;59.732;30.468;2023-10-19T14:34:33;6.82;;;6.28;;
73168;SDS011;61379;59.732;30.468;2023-10-19T14:37:00;6.72;;;6.22;;
73168;SDS011;61379;59.732;30.468;2023-10-19T14:39:28;7.40;;;6.88;;
73168;SDS011;61379;59.732;30.468;2023-10-19T14:41:55;8.63;;;6.28;;
73168;SDS011;61379;59.732;30.468;2023-10-19T14:44:21;6.50;;;5.90;;
73168;SDS011;61379;59.732;30.468;2023-10-19T14:46:48;5.97;;;5.57;;
73168;SDS011;61379;59.732;30.468;2023-10-19T14:49:16;5.95;;;5.55;;
73168;SDS011;61379;59.732;30.468;2023-10-19T14:51:43;5.82;;;5.07;;
73168;SDS011;61379;59.732;30.468;2023-10-19T14:54:10;5.03;;;4.65;;
73168;SDS011;61379;59.732;30.468;2023-10-19T14:56:37;5.72;;;5.10;;
73168;SDS011;61379;59.732;30.468;2023-10-19T14:59:04;5.63;;;5.15;;